< < Back
Terminal Aerodrome Forecast


Current Version              Previous Versions:   1  2  3  4  5  6  7  8  9  

Terminal Aerodrome Forecast

941
FTUS42 KJAX 241721
TAFSSI
TAF
KSSI 241721Z 2418/2518 05012G18KT P6SM SCT250
     FM242300 10007KT P6SM SCT250
     FM250800 13006KT P6SM BKN100
     FM251500 17012KT P6SM VCTS BKN040CB=

Latest METAR

050
SAUS70 KWBC 250000 RRE
MTRSSI
METAR KSSI 242353Z AUTO 09005KT 10SM CLR 18/09 A3003 RMK AO2 SLP167
T01830094 10211 20183 50001


USA.gov is the U.S. government's official web portal to all federal, state and local government web resources and services.